Nearby METAR Reports

 

KDEN - Denver, Colorado, Denver International Airport, USA
Distance from station: W 194mi, 312.4km
Updated: Fri, 27-Jan-2023 10:53am CST
Mostly cloudy
Mostly cloudy
 Wind from S
Wind: S 14 mph , 22 km/h
Temperature: 27°F , -3°C
Wind Chill: 16°F , -9°C
Dew Point: 18°F , -8°C
Humidity: 69%
Barometer: 29.89 inHg , 1012.2 hPa
Clouds: Mostly cloudy
Visibility: 10 miles , 16 km
Cloud details: Few Clouds 8000 ft
Partly cloudy 13000 ft
Partly cloudy 17000 ft
Mostly cloudy 20000 ft
2023/01/27 16:53 KDEN 271653Z 17012KT 10SM FEW080 SCT130 SCT170 BKN200 M03/M08 A2989 RMK AO2 SLP134 T10281078